GCGM/GMZ METAR and TAF weather

Enter ICAO airport designator
Station Type Date Time Source
GCGM METAR 2022/01/27 23:00 UTC NOAA

GCGM 272300Z AUTO 28004KT CAVOK 15/11 Q1018 RMK R09/31004KT ARP/29004KT


Station Type Date Time Source
GCGM Decoded METAR 2022/01/27 23:00 UTC NOAA

Station name not available
Jan 27, 2022 - 06:00 PM EST / 2022.01.27 2300 UTC
Wind: from the W (280 degrees) at 5 MPH (4 KT):0
Visibility: greater than 7 mile(s):0
Temperature: 59 F (15 C)
Dew Point: 51 F (11 C)
Relative Humidity: 76%
Pressure (altimeter): 30.06 in. Hg (1018 hPa)
ob: GCGM 272300Z AUTO 28004KT CAVOK 15/11 Q1018 RMK R09/31004KT ARP/29004KT
cycle: 23

Station Type Date Time Source
GCGM TAF 2022/01/27 21:00 UTC NOAA

TAF GCGM 272000Z 2721/2821 VRB05KT 9999 SCT030 TX19/2814Z TN14/2806Z PROB40
TEMPO 2721/2806 RA

Example: see airport list